Main page
METAR-TAF:

METAR-TAF

Airports :

Belgaum Airport

Belgaum, India

latitude: 15-51-33N, longitude: 74-37-03E, elevation: 758 m

Current weather observation

The report was made 16 minutes ago, at 01:00 UTC
Calm wind
Temperature 24°C
Humidity 50%
Pressure 1015 hPa
Visibility: 8000 m
Few clouds at a height of 1500 ft
Scattered clouds at a height of 2000 ft

METAR: VOBM 240100Z 00000KT 8000 FEW015 SCT020 24/13 Q1015

Time: 06:46 (01:16 UTC)

Forecast

The report was made 2 hours and 16 minutes ago, at 23:00 UTC
Forecast valid from 24 at 00 UTC to 24 at 09 UTC
Wind 10 kt from the West
Visibility: 6000 m
Few clouds at a height of 1500 ft
Becoming
from 24 at 07 UTC to 24 at 08 UTC
Wind 10 kt from the East/Southeast

TAF: VOBM 232300Z 2400/2409 27010KT 6000 FEW015 BECMG 2407/2408 11010KT

Weather observations and forecasts of more than 4000 airports (METAR and TAF reports).

The available stations are represented by yellow and red dots on the map.

Hover mouse over dot to see the name of the station.

Then click to see weather observations and forecasts.

To change the map : click on the green buttons with a black cross to zoom in, on the green button with a dash to zoom out, or on the green arrows for adjacent maps.


METAR-TAF: